Time;durP1;ratioP1;P1;durP2;ratioP2;P2;SDS_P1;SDS_P2;PMS_P1;PMS_P2;Temp;Humidity;BMP_temperature;BMP_pressure;BME280_temperature;BME280_humidity;BME280_pressure;Samples;Min_cycle;Max_cycle;Signal;HPM_P1;HPM_P2
2022/05/30 15:58:32;;;;;;;6.32;1.38;;;22.20;31.10;;;;;;5051389;28;20029;-68
2022/05/30 16:00:58;;;;;;;4.68;1.10;;;22.20;30.60;;;;;;5036875;28;20048;-68
2022/05/30 16:03:24;;;;;;;5.07;1.02;;;22.20;30.70;;;;;;5036197;28;20022;-68
2022/05/30 16:05:51;;;;;;;16.92;2.65;;;22.20;30.70;;;;;;5035940;28;20478;-68
2022/05/30 16:08:28;;;;;;;4.20;1.20;;;22.30;30.50;;;;;;5039600;28;20901;-68
2022/05/30 16:10:53;;;;;;;5.80;1.10;;;22.40;31.20;;;;;;5042100;28;20037;-68
2022/05/30 16:13:21;;;;;;;5.00;1.17;;;22.40;30.10;;;;;;5034884;28;20037;-67
2022/05/30 16:15:47;;;;;;;3.58;1.23;;;22.50;30.60;;;;;;5044809;28;20056;-67
2022/05/30 16:18:13;;;;;;;3.42;1.10;;;22.60;31.40;;;;;;5040112;28;20033;-67
2022/05/30 16:20:39;;;;;;;10.65;2.97;;;22.70;30.70;;;;;;5039228;28;20037;-66
2022/05/30 16:23:05;;;;;;;6.15;1.55;;;22.90;29.70;;;;;;5037775;28;20029;-67
2022/05/30 16:25:31;;;;;;;5.95;1.77;;;23.00;29.50;;;;;;5028352;28;20558;-68
2022/05/30 16:27:59;;;;;;;2.90;1.02;;;23.00;29.10;;;;;;5028734;28;20025;-67
2022/05/30 16:30:26;;;;;;;4.55;0.98;;;23.00;29.00;;;;;;5038422;28;20037;-67
2022/05/30 16:32:52;;;;;;;2.90;0.90;;;23.00;29.20;;;;;;5037260;28;20107;-67
2022/05/30 16:35:18;;;;;;;7.63;2.22;;;23.00;28.80;;;;;;5033542;28;20045;-66
2022/05/30 16:37:49;;;;;;;4.20;1.20;;;23.00;29.10;;;;;;5035416;28;20053;-66
2022/05/30 16:40:18;;;;;;;;;;;23.00;29.70;;;;;;5035860;28;20087;-66
2022/05/30 16:42:43;;;;;;;2.45;0.90;;;23.00;29.80;;;;;;5038750;28;20027;-67
2022/05/30 16:45:10;;;;;;;3.08;1.00;;;23.00;29.70;;;;;;5035336;28;20136;-68
2022/05/30 16:47:35;;;;;;;4.15;0.93;;;22.90;29.50;;;;;;5040494;28;20091;-68
2022/05/30 16:50:02;;;;;;;2.78;1.10;;;22.90;29.20;;;;;;5034145;28;20040;-66
2022/05/30 16:52:29;;;;;;;5.35;1.10;;;22.90;29.00;;;;;;5038057;28;20036;-68
2022/05/30 16:54:56;;;;;;;3.78;1.10;;;22.80;29.10;;;;;;5045153;28;20053;-66
2022/05/30 16:57:24;;;;;;;3.10;1.10;;;22.80;29.70;;;;;;5041728;28;20031;-66
2022/05/30 16:59:50;;;;;;;4.40;1.05;;;22.80;30.00;;;;;;5035457;28;20042;-66
2022/05/30 17:02:16;;;;;;;2.45;0.98;;;22.70;29.40;;;;;;5050099;28;20036;-67
2022/05/30 17:04:42;;;;;;;2.38;0.80;;;22.50;29.00;;;;;;5045439;28;20124;-67
2022/05/30 17:07:08;;;;;;;2.88;0.95;;;22.70;29.20;;;;;;5014555;28;20116;-68
2022/05/30 17:09:34;;;;;;;4.05;0.90;;;22.70;29.10;;;;;;5023780;28;20037;-68
2022/05/30 17:12:00;;;;;;;3.80;0.90;;;22.70;29.20;;;;;;5023322;28;20499;-67
2022/05/30 17:14:27;;;;;;;2.90;0.90;;;22.70;29.00;;;;;;5029915;28;20041;-68
2022/05/30 17:16:54;;;;;;;1.88;0.88;;;22.70;28.50;;;;;;5015582;28;20037;-69
2022/05/30 17:19:21;;;;;;;2.78;0.98;;;22.70;28.30;;;;;;5022663;28;20042;-68
2022/05/30 17:21:46;;;;;;;2.28;0.88;;;22.70;28.50;;;;;;5026759;28;20026;-68
2022/05/30 17:24:13;;;;;;;3.88;1.10;;;22.60;28.20;;;;;;5021115;28;20055;-68
2022/05/30 17:29:35;;;;;;;3.25;1.10;;;22.60;28.40;;;;;;5025917;28;20123;-68
2022/05/30 17:32:03;;;;;;;4.05;1.10;;;22.60;28.70;;;;;;5030257;28;20626;-68
2022/05/30 17:34:29;;;;;;;4.78;1.00;;;22.50;29.00;;;;;;5018346;28;20044;-67
2022/05/30 17:36:58;;;;;;;4.95;1.10;;;22.50;29.10;;;;;;5023384;28;20064;-67
2022/05/30 17:39:24;;;;;;;11.38;6.70;;;22.40;29.40;;;;;;5024617;28;20026;-66
2022/05/30 17:41:50;;;;;;;2.40;0.90;;;22.30;29.50;;;;;;5029261;28;20424;-66
2022/05/30 17:44:17;;;;;;;3.08;1.08;;;22.30;29.60;;;;;;5028976;28;20033;-66
2022/05/30 17:46:53;;;;;;;2.90;1.20;;;22.30;29.70;;;;;;5026735;28;20037;-67
2022/05/30 17:49:38;;;;;;;6.13;2.03;;;22.20;30.20;;;;;;5015355;28;20242;-67
2022/05/30 17:52:13;;;;;;;5.30;1.10;;;22.20;30.40;;;;;;5027666;28;20025;-67
2022/05/30 17:54:43;;;;;;;3.03;0.93;;;22.20;31.60;;;;;;5034468;28;20057;-67
2022/05/30 17:57:09;;;;;;;3.60;1.15;;;22.10;32.70;;;;;;5029508;28;20043;-67
2022/05/30 17:59:35;;;;;;;4.47;1.10;;;22.00;33.10;;;;;;5017320;28;20033;-67
2022/05/30 18:02:01;;;;;;;4.55;1.10;;;21.90;33.20;;;;;;5014121;28;20036;-67
2022/05/30 18:04:28;;;;;;;7.00;1.15;;;21.90;33.60;;;;;;5029033;28;20097;-66
2022/05/30 18:07:17;;;;;;;2.88;1.02;;;21.80;33.70;;;;;;5023038;28;20522;-66
2022/05/30 18:09:48;;;;;;;4.30;1.10;;;21.80;34.40;;;;;;5026260;28;20116;-67
2022/05/30 18:12:39;;;;;;;5.70;1.05;;;21.70;34.70;;;;;;5022583;28;20052;-66
2022/05/30 18:15:07;;;;;;;6.75;1.20;;;21.70;35.20;;;;;;5013493;28;20046;-67
2022/05/30 18:17:53;;;;;;;6.68;1.20;;;21.70;35.60;;;;;;5030951;28;20044;-66
2022/05/30 18:20:20;;;;;;;8.45;1.58;;;21.60;36.10;;;;;;5026121;28;20041;-68
2022/05/30 18:23:20;;;;;;;6.95;1.27;;;21.60;36.20;;;;;;5024970;28;20408;-68
2022/05/30 18:25:46;;;;;;;3.72;1.17;;;21.50;36.60;;;;;;5021747;28;20030;-67
2022/05/30 18:28:15;;;;;;;3.83;1.10;;;21.30;36.30;;;;;;5009939;28;20085;-68
2022/05/30 18:30:57;;;;;;;7.85;1.50;;;21.20;36.40;;;;;;5034534;28;20048;-68
2022/05/30 18:33:38;;;;;;;7.95;1.50;;;21.10;36.50;;;;;;5014838;28;20034;-67
2022/05/30 18:36:23;;;;;;;3.30;1.33;;;21.00;36.60;;;;;;5013528;28;20044;-68
2022/05/30 18:39:51;;;;;;;3.97;1.08;;;20.90;36.80;;;;;;5028046;28;20045;-67
2022/05/30 18:42:34;;;;;;;4.05;1.08;;;20.90;37.10;;;;;;5004175;28;20049;-67
2022/05/30 18:45:09;;;;;;;3.40;1.00;;;20.80;37.20;;;;;;4996669;28;20064;-68
2022/05/30 18:47:43;;;;;;;2.42;0.90;;;20.70;37.30;;;;;;5014558;28;20041;-67
2022/05/30 18:50:12;;;;;;;5.00;1.42;;;20.60;37.40;;;;;;5019738;28;20053;-67
2022/05/30 18:52:41;;;;;;;3.80;1.13;;;20.60;37.50;;;;;;5022645;28;20045;-67
2022/05/30 18:55:15;;;;;;;3.25;1.20;;;20.60;37.50;;;;;;5022746;28;20053;-67
2022/05/30 18:57:58;;;;;;;4.72;1.20;;;20.60;37.60;;;;;;5026587;28;20524;-67
2022/05/30 19:00:27;;;;;;;6.55;1.30;;;20.50;38.00;;;;;;5023546;28;20400;-68
2022/05/30 19:03:15;;;;;;;5.45;1.20;;;20.40;38.30;;;;;;5012714;28;20029;-68
2022/05/30 19:05:42;;;;;;;4.72;1.20;;;20.40;38.60;;;;;;5015785;28;20060;-67
2022/05/30 19:08:10;;;;;;;4.18;1.10;;;20.30;38.80;;;;;;5026501;28;20397;-66
2022/05/30 19:10:48;;;;;;;5.38;1.20;;;20.20;38.80;;;;;;5021355;28;20048;-67
2022/05/30 19:13:19;;;;;;;3.65;1.20;;;20.20;38.90;;;;;;5020912;28;20038;-67
2022/05/30 19:18:59;;;;;;;4.18;1.25;;;20.10;39.40;;;;;;5029719;28;20633;-67
2022/05/30 19:21:25;;;;;;;3.75;1.30;;;20.10;39.50;;;;;;5025937;28;20025;-66
2022/05/30 19:23:51;;;;;;;3.47;1.23;;;20.10;39.60;;;;;;5024058;28;20136;-66
2022/05/30 19:26:18;;;;;;;15.55;1.73;;;20.00;40.00;;;;;;5021037;28;20056;-67
2022/05/30 19:28:46;;;;;;;4.97;1.40;;;20.00;40.30;;;;;;5026129;28;20459;-66
2022/05/30 19:31:15;;;;;;;3.17;1.23;;;19.90;40.60;;;;;;5023680;28;20032;-66
2022/05/30 19:33:40;;;;;;;4.35;1.17;;;19.80;40.90;;;;;;5031622;28;20084;-66
2022/05/30 19:36:06;;;;;;;8.45;1.23;;;19.80;41.70;;;;;;5015063;28;20045;-66
2022/05/30 19:38:33;;;;;;;4.72;1.40;;;19.80;41.20;;;;;;5013944;28;20080;-66
2022/05/30 19:41:01;;;;;;;3.80;1.50;;;19.70;41.50;;;;;;5024560;28;20037;-66
2022/05/30 19:43:32;;;;;;;4.25;1.30;;;19.70;41.90;;;;;;5012264;28;20053;-66
2022/05/30 19:46:00;;;;;;;6.40;1.40;;;19.60;42.20;;;;;;5017625;28;20034;-66
2022/05/30 19:48:26;;;;;;;4.68;1.30;;;19.60;42.70;;;;;;5023064;28;20046;-67
2022/05/30 19:50:52;;;;;;;3.05;1.40;;;19.50;43.10;;;;;;5019403;28;20024;-66
2022/05/30 19:53:18;;;;;;;5.25;1.35;;;19.50;43.50;;;;;;5017168;28;20042;-67
2022/05/30 19:55:44;;;;;;;6.38;1.42;;;19.40;43.90;;;;;;5023219;28;20503;-67
2022/05/30 19:58:12;;;;;;;5.45;1.42;;;19.30;44.30;;;;;;5026356;28;20030;-67
2022/05/30 20:00:38;;;;;;;6.22;1.50;;;19.30;44.70;;;;;;5022616;28;20038;-67
2022/05/30 20:03:04;;;;;;;5.25;1.50;;;19.20;45.10;;;;;;5021110;28;20036;-67
2022/05/30 20:05:31;;;;;;;3.60;1.30;;;19.10;45.30;;;;;;5023880;28;20108;-67
2022/05/30 20:07:58;;;;;;;3.80;1.40;;;19.10;45.50;;;;;;5029267;28;20032;-66
2022/05/30 20:10:26;;;;;;;5.97;1.60;;;19.00;45.80;;;;;;5030070;28;20048;-66
2022/05/30 20:12:53;;;;;;;4.30;1.50;;;18.90;45.80;;;;;;5009228;28;20481;-66
2022/05/30 20:15:19;;;;;;;5.10;1.60;;;18.80;46.10;;;;;;5025923;28;20041;-66
2022/05/30 20:17:46;;;;;;;4.70;1.45;;;18.80;46.40;;;;;;5021281;28;20064;-67
2022/05/30 20:20:17;;;;;;;5.22;1.42;;;18.60;46.40;;;;;;5022970;28;20501;-66
2022/05/30 20:22:43;;;;;;;4.75;1.42;;;18.60;47.50;;;;;;5023339;28;20041;-66
2022/05/30 20:25:11;;;;;;;8.02;1.80;;;18.50;46.80;;;;;;5035087;28;20403;-67
2022/05/30 20:27:38;;;;;;;4.35;1.65;;;18.40;47.30;;;;;;5021893;28;20069;-66
2022/05/30 20:30:09;;;;;;;7.15;1.90;;;18.30;48.60;;;;;;5016748;28;20021;-67
2022/05/30 20:32:40;;;;;;;4.20;1.70;;;18.30;48.10;;;;;;5021639;28;20075;-66
2022/05/30 20:35:07;;;;;;;3.92;1.73;;;18.20;48.30;;;;;;5019558;28;20048;-66
2022/05/30 20:37:34;;;;;;;4.75;1.60;;;18.10;48.80;;;;;;5023866;28;20030;-66
2022/05/30 20:39:59;;;;;;;5.57;1.70;;;18.10;49.00;;;;;;5009923;28;20080;-66
2022/05/30 20:45:10;;;;;;;5.88;1.70;;;17.90;49.50;;;;;;5022569;28;20411;-66
2022/05/30 20:47:40;;;;;;;4.95;1.90;;;17.80;49.70;;;;;;5023907;28;20508;-66
2022/05/30 20:50:08;;;;;;;6.68;2.08;;;17.70;49.70;;;;;;5016026;28;20469;-66
2022/05/30 20:52:34;;;;;;;9.98;1.92;;;17.70;49.90;;;;;;5017677;28;20085;-66
2022/05/30 20:55:00;;;;;;;4.75;1.70;;;17.60;50.10;;;;;;5032995;28;20529;-66
2022/05/30 20:57:30;;;;;;;5.55;2.00;;;17.60;50.40;;;;;;5013996;28;20036;-66
2022/05/30 20:59:56;;;;;;;6.10;2.08;;;17.50;50.50;;;;;;5034421;28;20045;-66
2022/05/30 21:02:21;;;;;;;5.57;2.00;;;17.40;51.00;;;;;;5025787;28;20388;-66
2022/05/30 21:04:49;;;;;;;7.82;2.10;;;17.40;51.40;;;;;;5033944;28;20032;-66
2022/05/30 21:07:15;;;;;;;5.00;2.17;;;17.30;51.90;;;;;;5044890;28;20108;-66
2022/05/30 21:09:43;;;;;;;6.93;1.90;;;17.30;52.20;;;;;;5019353;28;20124;-66
2022/05/30 21:12:09;;;;;;;5.47;2.28;;;17.20;52.50;;;;;;5025624;28;20024;-67
2022/05/30 21:14:36;;;;;;;7.30;2.40;;;17.20;52.50;;;;;;5036334;28;20045;-66
2022/05/30 21:17:24;;;;;;;5.97;2.20;;;17.10;52.70;;;;;;5032787;28;20492;-66
2022/05/30 21:20:05;;;;;;;6.57;2.15;;;17.00;52.90;;;;;;5024880;28;20500;-66
2022/05/30 21:22:35;;;;;;;5.60;2.00;;;17.00;53.10;;;;;;5024830;28;20112;-66
2022/05/30 21:25:05;;;;;;;6.95;2.10;;;16.90;53.50;;;;;;5023729;28;20476;-66
2022/05/30 21:27:31;;;;;;;8.80;2.33;;;16.80;53.40;;;;;;5030398;28;20476;-66
2022/05/30 21:29:57;;;;;;;7.50;2.10;;;16.80;53.30;;;;;;5027194;28;20029;-67
2022/05/30 21:32:34;;;;;;;5.70;2.45;;;16.70;53.40;;;;;;5022037;28;20025;-66
2022/05/30 21:35:00;;;;;;;5.28;2.10;;;16.70;53.90;;;;;;5022783;28;20045;-66
2022/05/30 21:37:26;;;;;;;5.32;2.10;;;16.60;54.30;;;;;;5033118;28;20067;-66
2022/05/30 21:39:52;;;;;;;6.47;1.90;;;16.60;54.80;;;;;;5010641;28;20032;-67
2022/05/30 21:42:18;;;;;;;4.30;1.83;;;16.50;54.90;;;;;;5029104;28;20028;-67
2022/05/30 21:44:43;;;;;;;5.60;2.00;;;16.50;55.20;;;;;;5020714;28;20040;-66
2022/05/30 21:47:09;;;;;;;5.05;2.20;;;16.40;55.50;;;;;;5015878;28;20026;-67
2022/05/30 21:49:35;;;;;;;4.85;2.03;;;16.40;55.90;;;;;;5014114;28;20045;-66
2022/05/30 21:52:01;;;;;;;5.10;2.00;;;16.40;56.10;;;;;;5012317;28;20105;-66
2022/05/30 21:54:27;;;;;;;3.85;1.70;;;16.40;56.30;;;;;;5020186;28;20128;-66
2022/05/30 21:57:49;;;;;;;5.57;2.00;;;16.30;56.40;;;;;;5014044;28;20026;-67
2022/05/30 21:59:39;;;;;;;5.28;2.00;;;16.30;56.30;;;;;;5014878;28;20768;-67
2022/05/30 22:02:06;;;;;;;4.47;1.90;;;16.30;56.20;;;;;;5020304;28;20080;-67
2022/05/30 22:04:32;;;;;;;4.20;1.92;;;16.20;56.00;;;;;;5012623;28;24060;-66
2022/05/30 22:06:57;;;;;;;4.65;1.98;;;16.20;55.90;;;;;;5023753;28;20527;-66
2022/05/30 22:09:23;;;;;;;4.15;1.90;;;16.10;56.10;;;;;;5029023;28;20025;-67
2022/05/30 22:11:49;;;;;;;5.18;1.98;;;16.10;56.40;;;;;;5024541;28;20033;-67
2022/05/30 22:14:15;;;;;;;5.22;1.83;;;16.00;56.10;;;;;;5022522;28;20492;-67
2022/05/30 22:16:41;;;;;;;5.07;2.10;;;15.90;56.00;;;;;;5014552;28;20039;-66
2022/05/30 22:19:08;;;;;;;3.85;1.70;;;15.90;56.40;;;;;;5027635;28;20026;-67
2022/05/30 22:21:35;;;;;;;5.03;1.90;;;15.80;56.40;;;;;;5015630;28;20056;-66
2022/05/30 22:24:01;;;;;;;4.40;1.75;;;15.80;56.60;;;;;;5014339;28;20026;-67
2022/05/30 22:26:30;;;;;;;5.65;1.55;;;15.70;56.60;;;;;;5022357;28;20045;-67
2022/05/30 22:28:56;;;;;;;6.88;1.80;;;15.70;56.50;;;;;;5023478;28;20026;-66
2022/05/30 22:31:25;;;;;;;3.85;1.88;;;15.70;56.70;;;;;;5014082;28;20071;-67
2022/05/30 22:33:51;;;;;;;5.25;1.70;;;15.60;56.80;;;;;;5010947;28;20026;-67
2022/05/30 22:36:18;;;;;;;4.00;1.50;;;15.60;57.00;;;;;;5028807;28;20048;-66
2022/05/30 22:38:44;;;;;;;3.20;1.40;;;15.50;56.90;;;;;;5028261;28;20223;-67
2022/05/30 22:41:11;;;;;;;5.40;1.58;;;15.50;56.40;;;;;;5025371;28;20033;-67
2022/05/30 22:43:36;;;;;;;6.10;1.80;;;15.50;56.30;;;;;;5023306;28;20072;-67
2022/05/30 22:46:02;;;;;;;7.50;1.70;;;15.40;56.10;;;;;;5012414;28;20061;-66
2022/05/30 22:48:29;;;;;;;3.20;1.60;;;15.40;56.00;;;;;;5015901;28;20021;-66
2022/05/30 22:51:15;;;;;;;4.68;1.50;;;15.40;55.90;;;;;;5014954;28;20038;-67
2022/05/30 22:53:46;;;;;;;3.20;1.55;;;15.30;55.90;;;;;;5014836;28;20530;-66
2022/05/30 22:56:13;;;;;;;3.63;1.52;;;15.30;56.00;;;;;;5014180;28;20052;-66
2022/05/30 22:58:39;;;;;;;4.63;1.48;;;15.20;56.10;;;;;;5025272;28;20021;-66
2022/05/30 23:01:06;;;;;;;3.90;1.63;;;15.20;56.10;;;;;;5021388;28;20029;-66
2022/05/30 23:03:33;;;;;;;4.40;1.60;;;15.20;56.00;;;;;;5017457;28;20033;-66
2022/05/30 23:05:59;;;;;;;4.40;1.50;;;15.10;56.00;;;;;;5013971;28;20034;-66
2022/05/30 23:08:25;;;;;;;3.75;1.60;;;15.10;56.20;;;;;;5015424;28;20029;-66
2022/05/30 23:10:56;;;;;;;3.28;1.40;;;15.10;56.40;;;;;;5022784;28;20047;-66
2022/05/30 23:13:42;;;;;;;3.95;1.55;;;15.00;56.30;;;;;;5023717;28;20392;-66
2022/05/30 23:16:14;;;;;;;3.50;1.52;;;15.00;56.20;;;;;;5024218;28;20041;-66
2022/05/30 23:18:43;;;;;;;3.42;1.35;;;15.00;56.20;;;;;;5034734;28;20036;-66
2022/05/30 23:21:10;;;;;;;3.35;1.50;;;14.80;56.10;;;;;;5027454;28;20017;-66
2022/05/30 23:23:37;;;;;;;2.53;1.35;;;14.80;56.20;;;;;;5020570;28;20032;-67
2022/05/30 23:26:03;;;;;;;4.10;1.40;;;14.80;56.20;;;;;;5012540;28;20034;-66
2022/05/30 23:28:30;;;;;;;3.30;1.40;;;14.70;56.30;;;;;;5033956;28;20034;-66
2022/05/30 23:30:56;;;;;;;4.13;1.50;;;14.70;56.50;;;;;;5012089;28;20037;-66
2022/05/30 23:33:22;;;;;;;4.70;1.52;;;14.60;56.70;;;;;;5023693;28;20121;-66
2022/05/30 23:35:48;;;;;;;3.60;1.50;;;14.60;57.10;;;;;;5014653;28;20038;-66
2022/05/30 23:38:18;;;;;;;3.53;1.45;;;14.60;57.40;;;;;;5012208;28;20914;-66
2022/05/30 23:40:44;;;;;;;6.15;1.70;;;14.60;57.50;;;;;;5016347;28;20599;-66
2022/05/30 23:45:55;;;;;;;3.40;1.35;;;14.50;57.60;;;;;;5025903;28;20040;-66
2022/05/30 23:48:22;;;;;;;6.88;1.50;;;14.50;57.50;;;;;;5017007;28;20048;-66
2022/05/30 23:50:48;;;;;;;3.20;1.50;;;14.50;57.30;;;;;;5025444;28;20057;-66
2022/05/30 23:53:15;;;;;;;4.38;1.60;;;14.40;57.10;;;;;;5023016;28;20029;-66
2022/05/30 23:55:42;;;;;;;5.20;1.50;;;14.40;57.20;;;;;;5011663;28;20045;-66
2022/05/30 23:58:09;;;;;;;3.67;1.45;;;14.30;57.50;;;;;;5017108;28;20072;-66
